sensor_id;sensor_type;location;lat;lon;timestamp;temperature;humidity
32907;DHT22;19259;51.590;5.320;2022-10-15T00:01:10;11.10;99.90
32907;DHT22;19259;51.590;5.320;2022-10-15T00:03:39;11.20;99.90
32907;DHT22;19259;51.590;5.320;2022-10-15T00:06:13;11.10;99.90
32907;DHT22;19259;51.590;5.320;2022-10-15T00:08:42;11.10;99.90
32907;DHT22;19259;51.590;5.320;2022-10-15T00:11:15;11.20;99.90
32907;DHT22;19259;51.590;5.320;2022-10-15T00:13:43;11.20;99.90
32907;DHT22;19259;51.590;5.320;2022-10-15T00:16:14;11.20;99.90
32907;DHT22;19259;51.590;5.320;2022-10-15T00:18:42;11.30;99.90
32907;DHT22;19259;51.590;5.320;2022-10-15T00:21:12;11.40;99.90
32907;DHT22;19259;51.590;5.320;2022-10-15T00:23:41;11.40;99.90
32907;DHT22;19259;51.590;5.320;2022-10-15T00:26:16;11.50;99.90
32907;DHT22;19259;51.590;5.320;2022-10-15T00:28:39;11.50;99.90
32907;DHT22;19259;51.590;5.320;2022-10-15T00:31:13;11.60;99.90
32907;DHT22;19259;51.590;5.320;2022-10-15T00:33:41;11.60;99.90
32907;DHT22;19259;51.590;5.320;2022-10-15T00:36:14;11.60;99.90
32907;DHT22;19259;51.590;5.320;2022-10-15T00:38:42;11.70;99.90
32907;DHT22;19259;51.590;5.320;2022-10-15T00:41:16;11.70;99.90
32907;DHT22;19259;51.590;5.320;2022-10-15T00:43:47;11.70;99.90
32907;DHT22;19259;51.590;5.320;2022-10-15T00:46:23;11.70;99.90
32907;DHT22;19259;51.590;5.320;2022-10-15T00:49:02;11.70;99.90
32907;DHT22;19259;51.590;5.320;2022-10-15T00:51:32;11.80;99.90
32907;DHT22;19259;51.590;5.320;2022-10-15T00:54:20;11.80;99.90
32907;DHT22;19259;51.590;5.320;2022-10-15T00:56:49;11.80;99.90
32907;DHT22;19259;51.590;5.320;2022-10-15T00:59:18;11.90;99.90
32907;DHT22;19259;51.590;5.320;2022-10-15T01:01:48;11.80;99.90
32907;DHT22;19259;51.590;5.320;2022-10-15T01:04:16;11.80;99.90
32907;DHT22;19259;51.590;5.320;2022-10-15T01:06:45;11.90;99.90
32907;DHT22;19259;51.590;5.320;2022-10-15T01:09:13;11.90;99.90
32907;DHT22;19259;51.590;5.320;2022-10-15T01:11:50;12.00;99.90
32907;DHT22;19259;51.590;5.320;2022-10-15T01:14:47;12.00;99.90
32907;DHT22;19259;51.590;5.320;2022-10-15T01:17:39;11.90;99.90
32907;DHT22;19259;51.590;5.320;2022-10-15T01:31:33;12.00;99.90
32907;DHT22;19259;51.590;5.320;2022-10-15T01:34:09;12.10;99.90
32907;DHT22;19259;51.590;5.320;2022-10-15T01:36:38;12.10;99.90
32907;DHT22;19259;51.590;5.320;2022-10-15T01:39:30;12.10;99.90
32907;DHT22;19259;51.590;5.320;2022-10-15T01:42:03;12.10;99.90
32907;DHT22;19259;51.590;5.320;2022-10-15T01:44:34;12.10;99.90
32907;DHT22;19259;51.590;5.320;2022-10-15T01:47:07;12.20;99.90
32907;DHT22;19259;51.590;5.320;2022-10-15T01:49:39;12.20;99.90
32907;DHT22;19259;51.590;5.320;2022-10-15T01:52:23;12.20;99.90
32907;DHT22;19259;51.590;5.320;2022-10-15T01:54:48;12.20;99.90
32907;DHT22;19259;51.590;5.320;2022-10-15T01:57:18;12.20;99.90
32907;DHT22;19259;51.590;5.320;2022-10-15T01:59:47;12.20;99.90
32907;DHT22;19259;51.590;5.320;2022-10-15T02:02:14;12.20;99.90
32907;DHT22;19259;51.590;5.320;2022-10-15T02:04:42;12.30;99.90
32907;DHT22;19259;51.590;5.320;2022-10-15T02:07:17;12.30;99.90
32907;DHT22;19259;51.590;5.320;2022-10-15T02:09:49;12.30;99.90
32907;DHT22;19259;51.590;5.320;2022-10-15T02:12:25;12.30;99.90
32907;DHT22;19259;51.590;5.320;2022-10-15T02:17:45;12.30;99.90
32907;DHT22;19259;51.590;5.320;2022-10-15T02:20:23;12.30;99.90
32907;DHT22;19259;51.590;5.320;2022-10-15T02:22:56;12.30;99.90
32907;DHT22;19259;51.590;5.320;2022-10-15T02:25:25;12.30;99.90
32907;DHT22;19259;51.590;5.320;2022-10-15T02:27:55;12.30;99.90
32907;DHT22;19259;51.590;5.320;2022-10-15T02:30:25;12.30;99.90
32907;DHT22;19259;51.590;5.320;2022-10-15T02:32:56;12.30;99.90
32907;DHT22;19259;51.590;5.320;2022-10-15T02:35:25;12.30;99.90
32907;DHT22;19259;51.590;5.320;2022-10-15T02:37:55;12.40;99.90
32907;DHT22;19259;51.590;5.320;2022-10-15T02:40:26;12.40;99.90
32907;DHT22;19259;51.590;5.320;2022-10-15T02:42:54;12.30;99.90
32907;DHT22;19259;51.590;5.320;2022-10-15T02:45:22;12.40;99.90
32907;DHT22;19259;51.590;5.320;2022-10-15T02:47:49;12.40;99.90
32907;DHT22;19259;51.590;5.320;2022-10-15T02:50:17;12.40;99.90
32907;DHT22;19259;51.590;5.320;2022-10-15T02:52:44;12.40;99.90
32907;DHT22;19259;51.590;5.320;2022-10-15T02:55:12;12.30;99.90
32907;DHT22;19259;51.590;5.320;2022-10-15T02:57:41;12.30;99.90
32907;DHT22;19259;51.590;5.320;2022-10-15T03:00:09;12.30;99.90
32907;DHT22;19259;51.590;5.320;2022-10-15T03:02:42;12.30;99.90
32907;DHT22;19259;51.590;5.320;2022-10-15T03:05:09;12.20;99.90
32907;DHT22;19259;51.590;5.320;2022-10-15T03:07:37;12.20;99.90
32907;DHT22;19259;51.590;5.320;2022-10-15T03:10:05;12.20;99.90
32907;DHT22;19259;51.590;5.320;2022-10-15T03:12:33;12.10;99.90
32907;DHT22;19259;51.590;5.320;2022-10-15T03:15:01;12.10;99.90
32907;DHT22;19259;51.590;5.320;2022-10-15T03:17:29;12.10;99.90
32907;DHT22;19259;51.590;5.320;2022-10-15T03:19:56;12.10;99.90
32907;DHT22;19259;51.590;5.320;2022-10-15T03:22:24;12.10;99.90
32907;DHT22;19259;51.590;5.320;2022-10-15T03:24:51;12.10;99.90
32907;DHT22;19259;51.590;5.320;2022-10-15T03:27:19;12.10;99.90
32907;DHT22;19259;51.590;5.320;2022-10-15T03:29:47;12.10;99.90
32907;DHT22;19259;51.590;5.320;2022-10-15T03:32:14;12.10;99.90
32907;DHT22;19259;51.590;5.320;2022-10-15T03:34:42;12.10;99.90
32907;DHT22;19259;51.590;5.320;2022-10-15T03:37:09;12.10;99.90
32907;DHT22;19259;51.590;5.320;2022-10-15T03:39:37;12.20;99.90
32907;DHT22;19259;51.590;5.320;2022-10-15T03:42:04;12.10;99.90
32907;DHT22;19259;51.590;5.320;2022-10-15T03:44:32;12.10;99.90
32907;DHT22;19259;51.590;5.320;2022-10-15T03:47:00;12.10;99.90
32907;DHT22;19259;51.590;5.320;2022-10-15T03:49:28;12.00;99.90
32907;DHT22;19259;51.590;5.320;2022-10-15T03:51:55;12.00;99.90
32907;DHT22;19259;51.590;5.320;2022-10-15T03:54:22;11.90;99.90
32907;DHT22;19259;51.590;5.320;2022-10-15T03:56:50;11.90;99.90
32907;DHT22;19259;51.590;5.320;2022-10-15T03:59:18;12.00;99.90
32907;DHT22;19259;51.590;5.320;2022-10-15T04:01:45;12.00;99.90
32907;DHT22;19259;51.590;5.320;2022-10-15T04:04:13;12.00;99.90
32907;DHT22;19259;51.590;5.320;2022-10-15T04:06:40;12.00;99.90
32907;DHT22;19259;51.590;5.320;2022-10-15T04:09:09;12.00;99.90
32907;DHT22;19259;51.590;5.320;2022-10-15T04:11:37;12.00;99.90
32907;DHT22;19259;51.590;5.320;2022-10-15T04:14:05;12.10;99.90
32907;DHT22;19259;51.590;5.320;2022-10-15T04:16:34;12.10;99.90
32907;DHT22;19259;51.590;5.320;2022-10-15T04:19:02;12.10;99.90
32907;DHT22;19259;51.590;5.320;2022-10-15T04:21:29;12.20;99.90
32907;DHT22;19259;51.590;5.320;2022-10-15T04:24:03;12.20;99.90
32907;DHT22;19259;51.590;5.320;2022-10-15T04:26:31;12.40;99.90
32907;DHT22;19259;51.590;5.320;2022-10-15T04:28:59;12.40;99.90
32907;DHT22;19259;51.590;5.320;2022-10-15T04:31:26;12.50;99.90
32907;DHT22;19259;51.590;5.320;2022-10-15T04:33:54;12.50;99.90
32907;DHT22;19259;51.590;5.320;2022-10-15T04:36:21;12.50;99.90
32907;DHT22;19259;51.590;5.320;2022-10-15T04:38:49;12.60;99.90
32907;DHT22;19259;51.590;5.320;2022-10-15T04:41:16;12.50;99.90
32907;DHT22;19259;51.590;5.320;2022-10-15T04:43:44;12.60;99.90
32907;DHT22;19259;51.590;5.320;2022-10-15T04:46:12;12.60;99.90
32907;DHT22;19259;51.590;5.320;2022-10-15T04:48:39;12.70;99.90
32907;DHT22;19259;51.590;5.320;2022-10-15T04:51:10;12.70;99.90
32907;DHT22;19259;51.590;5.320;2022-10-15T04:53:37;12.70;99.90
32907;DHT22;19259;51.590;5.320;2022-10-15T04:56:07;12.70;99.90
32907;DHT22;19259;51.590;5.320;2022-10-15T04:58:36;12.70;99.90
32907;DHT22;19259;51.590;5.320;2022-10-15T05:01:05;12.80;99.90
32907;DHT22;19259;51.590;5.320;2022-10-15T05:03:34;12.80;99.90
32907;DHT22;19259;51.590;5.320;2022-10-15T05:06:13;12.80;99.90
32907;DHT22;19259;51.590;5.320;2022-10-15T05:08:41;12.80;99.90
32907;DHT22;19259;51.590;5.320;2022-10-15T05:11:15;12.90;99.90
32907;DHT22;19259;51.590;5.320;2022-10-15T05:13:43;12.80;99.90
32907;DHT22;19259;51.590;5.320;2022-10-15T05:16:19;12.90;99.90
32907;DHT22;19259;51.590;5.320;2022-10-15T05:18:50;12.90;99.90
32907;DHT22;19259;51.590;5.320;2022-10-15T05:21:18;12.90;99.90
32907;DHT22;19259;51.590;5.320;2022-10-15T05:23:45;12.90;99.90
32907;DHT22;19259;51.590;5.320;2022-10-15T05:26:18;12.90;99.90
32907;DHT22;19259;51.590;5.320;2022-10-15T05:28:46;12.90;99.90
32907;DHT22;19259;51.590;5.320;2022-10-15T05:31:16;12.90;99.90
32907;DHT22;19259;51.590;5.320;2022-10-15T05:33:44;12.90;99.90
32907;DHT22;19259;51.590;5.320;2022-10-15T05:36:14;12.90;99.90
32907;DHT22;19259;51.590;5.320;2022-10-15T05:38:54;12.90;99.90
32907;DHT22;19259;51.590;5.320;2022-10-15T05:41:22;12.90;99.90
32907;DHT22;19259;51.590;5.320;2022-10-15T05:43:52;12.90;99.90
32907;DHT22;19259;51.590;5.320;2022-10-15T05:46:22;12.90;99.90
32907;DHT22;19259;51.590;5.320;2022-10-15T05:48:51;12.90;99.90
32907;DHT22;19259;51.590;5.320;2022-10-15T05:51:20;12.90;99.90
32907;DHT22;19259;51.590;5.320;2022-10-15T05:53:52;12.90;99.90
32907;DHT22;19259;51.590;5.320;2022-10-15T05:56:20;12.90;99.90
32907;DHT22;19259;51.590;5.320;2022-10-15T05:58:48;12.90;99.90
32907;DHT22;19259;51.590;5.320;2022-10-15T06:01:16;13.00;99.90
32907;DHT22;19259;51.590;5.320;2022-10-15T06:03:44;12.90;99.90
32907;DHT22;19259;51.590;5.320;2022-10-15T06:06:23;12.90;99.90
32907;DHT22;19259;51.590;5.320;2022-10-15T06:08:52;12.90;99.90
32907;DHT22;19259;51.590;5.320;2022-10-15T06:11:20;12.90;99.90
32907;DHT22;19259;51.590;5.320;2022-10-15T06:13:48;13.00;99.90
32907;DHT22;19259;51.590;5.320;2022-10-15T06:16:16;13.00;99.90
32907;DHT22;19259;51.590;5.320;2022-10-15T06:18:44;13.00;99.90
32907;DHT22;19259;51.590;5.320;2022-10-15T06:21:31;13.00;99.90
32907;DHT22;19259;51.590;5.320;2022-10-15T06:23:58;12.90;99.90
32907;DHT22;19259;51.590;5.320;2022-10-15T06:26:26;13.00;99.90
32907;DHT22;19259;51.590;5.320;2022-10-15T06:28:54;12.90;99.90
32907;DHT22;19259;51.590;5.320;2022-10-15T06:31:22;12.90;99.90
32907;DHT22;19259;51.590;5.320;2022-10-15T06:33:49;13.00;99.90
32907;DHT22;19259;51.590;5.320;2022-10-15T06:36:22;13.00;99.90
32907;DHT22;19259;51.590;5.320;2022-10-15T06:38:47;13.00;99.90
32907;DHT22;19259;51.590;5.320;2022-10-15T06:41:14;13.00;99.90
32907;DHT22;19259;51.590;5.320;2022-10-15T06:43:42;12.90;99.90
32907;DHT22;19259;51.590;5.320;2022-10-15T06:46:16;12.90;99.90
32907;DHT22;19259;51.590;5.320;2022-10-15T06:48:40;12.90;99.90
32907;DHT22;19259;51.590;5.320;2022-10-15T06:51:08;12.90;99.90
32907;DHT22;19259;51.590;5.320;2022-10-15T06:53:37;13.00;99.90
32907;DHT22;19259;51.590;5.320;2022-10-15T06:56:06;12.90;99.90
32907;DHT22;19259;51.590;5.320;2022-10-15T06:58:34;13.00;99.90
32907;DHT22;19259;51.590;5.320;2022-10-15T07:01:05;13.00;99.90
32907;DHT22;19259;51.590;5.320;2022-10-15T07:03:34;13.00;99.90
32907;DHT22;19259;51.590;5.320;2022-10-15T07:06:08;13.10;99.90
32907;DHT22;19259;51.590;5.320;2022-10-15T07:08:37;13.00;99.90
32907;DHT22;19259;51.590;5.320;2022-10-15T07:11:06;12.90;99.90
32907;DHT22;19259;51.590;5.320;2022-10-15T07:13:35;12.90;99.90
32907;DHT22;19259;51.590;5.320;2022-10-15T07:16:10;12.90;99.90
32907;DHT22;19259;51.590;5.320;2022-10-15T07:18:42;12.90;99.90
32907;DHT22;19259;51.590;5.320;2022-10-15T07:21:08;12.90;99.90
32907;DHT22;19259;51.590;5.320;2022-10-15T07:23:36;13.00;99.90
32907;DHT22;19259;51.590;5.320;2022-10-15T07:26:04;13.00;99.90
32907;DHT22;19259;51.590;5.320;2022-10-15T07:28:31;13.20;99.90
32907;DHT22;19259;51.590;5.320;2022-10-15T07:31:04;13.20;99.90
32907;DHT22;19259;51.590;5.320;2022-10-15T07:33:33;13.40;99.90
32907;DHT22;19259;51.590;5.320;2022-10-15T07:36:05;13.40;99.90
32907;DHT22;19259;51.590;5.320;2022-10-15T07:38:34;13.20;99.90
32907;DHT22;19259;51.590;5.320;2022-10-15T07:41:03;13.20;99.90
32907;DHT22;19259;51.590;5.320;2022-10-15T07:43:31;13.30;99.90
32907;DHT22;19259;51.590;5.320;2022-10-15T07:45:59;13.40;99.90
32907;DHT22;19259;51.590;5.320;2022-10-15T07:48:28;13.40;99.90
32907;DHT22;19259;51.590;5.320;2022-10-15T07:51:01;13.60;99.90
32907;DHT22;19259;51.590;5.320;2022-10-15T07:53:30;13.60;99.90
32907;DHT22;19259;51.590;5.320;2022-10-15T07:56:05;13.60;99.90
32907;DHT22;19259;51.590;5.320;2022-10-15T07:58:35;13.60;99.90
32907;DHT22;19259;51.590;5.320;2022-10-15T08:01:05;13.50;99.90
32907;DHT22;19259;51.590;5.320;2022-10-15T08:03:33;13.50;99.90
32907;DHT22;19259;51.590;5.320;2022-10-15T08:06:04;13.50;99.90
32907;DHT22;19259;51.590;5.320;2022-10-15T08:08:33;13.60;99.90
32907;DHT22;19259;51.590;5.320;2022-10-15T08:11:05;13.80;99.90
32907;DHT22;19259;51.590;5.320;2022-10-15T08:13:33;13.90;99.90
32907;DHT22;19259;51.590;5.320;2022-10-15T08:16:00;13.90;99.90
32907;DHT22;19259;51.590;5.320;2022-10-15T08:18:28;14.00;99.90
32907;DHT22;19259;51.590;5.320;2022-10-15T08:20:58;14.10;99.90
32907;DHT22;19259;51.590;5.320;2022-10-15T08:23:26;14.20;99.90
32907;DHT22;19259;51.590;5.320;2022-10-15T08:25:58;14.30;99.90
32907;DHT22;19259;51.590;5.320;2022-10-15T08:28:27;14.30;99.90
32907;DHT22;19259;51.590;5.320;2022-10-15T08:30:57;14.20;99.90
32907;DHT22;19259;51.590;5.320;2022-10-15T08:33:25;14.40;99.90
32907;DHT22;19259;51.590;5.320;2022-10-15T08:35:52;14.40;99.90
32907;DHT22;19259;51.590;5.320;2022-10-15T08:38:20;14.50;99.90
32907;DHT22;19259;51.590;5.320;2022-10-15T08:40:54;14.60;99.90
32907;DHT22;19259;51.590;5.320;2022-10-15T08:43:27;14.50;99.90
32907;DHT22;19259;51.590;5.320;2022-10-15T08:45:58;14.40;99.90
32907;DHT22;19259;51.590;5.320;2022-10-15T08:48:33;14.50;99.90
32907;DHT22;19259;51.590;5.320;2022-10-15T08:51:07;14.60;99.90
32907;DHT22;19259;51.590;5.320;2022-10-15T08:53:37;14.70;99.90
32907;DHT22;19259;51.590;5.320;2022-10-15T08:56:11;14.80;99.90
32907;DHT22;19259;51.590;5.320;2022-10-15T09:01:37;15.10;99.90
32907;DHT22;19259;51.590;5.320;2022-10-15T09:07:02;15.00;99.90
32907;DHT22;19259;51.590;5.320;2022-10-15T09:14:53;15.00;99.90
32907;DHT22;19259;51.590;5.320;2022-10-15T09:17:24;14.90;99.90
32907;DHT22;19259;51.590;5.320;2022-10-15T09:19:58;14.90;99.90
32907;DHT22;19259;51.590;5.320;2022-10-15T09:22:29;14.90;99.90
32907;DHT22;19259;51.590;5.320;2022-10-15T09:24:57;14.90;99.90
32907;DHT22;19259;51.590;5.320;2022-10-15T09:27:33;14.90;99.90
32907;DHT22;19259;51.590;5.320;2022-10-15T09:33:04;14.90;99.90
32907;DHT22;19259;51.590;5.320;2022-10-15T09:35:29;14.80;99.90
32907;DHT22;19259;51.590;5.320;2022-10-15T09:43:31;14.80;99.90
32907;DHT22;19259;51.590;5.320;2022-10-15T09:46:01;14.90;99.90
32907;DHT22;19259;51.590;5.320;2022-10-15T09:48:34;14.90;99.90
32907;DHT22;19259;51.590;5.320;2022-10-15T09:51:14;14.80;99.90
32907;DHT22;19259;51.590;5.320;2022-10-15T09:56:40;14.80;99.90
32907;DHT22;19259;51.590;5.320;2022-10-15T09:59:13;14.80;99.90
32907;DHT22;19259;51.590;5.320;2022-10-15T10:01:38;14.70;99.90
32907;DHT22;19259;51.590;5.320;2022-10-15T10:06:48;14.80;99.90
32907;DHT22;19259;51.590;5.320;2022-10-15T10:09:28;14.70;99.90
32907;DHT22;19259;51.590;5.320;2022-10-15T10:11:59;14.90;99.90
32907;DHT22;19259;51.590;5.320;2022-10-15T10:14:35;15.00;99.90
32907;DHT22;19259;51.590;5.320;2022-10-15T10:17:19;15.10;99.90
32907;DHT22;19259;51.590;5.320;2022-10-15T10:22:51;14.80;99.90
32907;DHT22;19259;51.590;5.320;2022-10-15T10:25:39;14.90;99.90
32907;DHT22;19259;51.590;5.320;2022-10-15T10:28:13;14.90;99.90
32907;DHT22;19259;51.590;5.320;2022-10-15T10:30:58;15.00;99.90
32907;DHT22;19259;51.590;5.320;2022-10-15T10:33:33;15.00;99.90
32907;DHT22;19259;51.590;5.320;2022-10-15T10:36:02;15.00;99.90
32907;DHT22;19259;51.590;5.320;2022-10-15T10:38:38;15.00;99.90
32907;DHT22;19259;51.590;5.320;2022-10-15T10:41:10;15.00;99.90
32907;DHT22;19259;51.590;5.320;2022-10-15T10:43:51;15.00;99.90
32907;DHT22;19259;51.590;5.320;2022-10-15T10:48:46;15.20;99.90
32907;DHT22;19259;51.590;5.320;2022-10-15T10:51:25;15.20;99.90
32907;DHT22;19259;51.590;5.320;2022-10-15T10:53:58;15.30;99.90
32907;DHT22;19259;51.590;5.320;2022-10-15T10:59:03;15.40;99.90
32907;DHT22;19259;51.590;5.320;2022-10-15T11:01:31;15.50;99.90
32907;DHT22;19259;51.590;5.320;2022-10-15T11:04:01;15.60;99.90
32907;DHT22;19259;51.590;5.320;2022-10-15T11:06:54;15.60;99.90
32907;DHT22;19259;51.590;5.320;2022-10-15T11:09:34;15.50;99.90
32907;DHT22;19259;51.590;5.320;2022-10-15T11:12:12;15.60;99.90
32907;DHT22;19259;51.590;5.320;2022-10-15T11:33:34;15.80;99.90
32907;DHT22;19259;51.590;5.320;2022-10-15T11:36:17;15.80;99.90
32907;DHT22;19259;51.590;5.320;2022-10-15T11:38:54;15.80;99.90
32907;DHT22;19259;51.590;5.320;2022-10-15T11:44:47;16.10;99.90
32907;DHT22;19259;51.590;5.320;2022-10-15T11:52:37;16.50;99.90
32907;DHT22;19259;51.590;5.320;2022-10-15T11:55:22;16.60;99.90
32907;DHT22;19259;51.590;5.320;2022-10-15T11:57:53;16.60;99.90
32907;DHT22;19259;51.590;5.320;2022-10-15T12:00:29;16.80;99.90
32907;DHT22;19259;51.590;5.320;2022-10-15T12:03:25;17.00;99.90
32907;DHT22;19259;51.590;5.320;2022-10-15T12:06:02;17.10;99.90
32907;DHT22;19259;51.590;5.320;2022-10-15T12:08:34;17.00;99.90
32907;DHT22;19259;51.590;5.320;2022-10-15T12:13:47;17.00;99.90
32907;DHT22;19259;51.590;5.320;2022-10-15T12:18:50;17.20;99.90
32907;DHT22;19259;51.590;5.320;2022-10-15T12:21:38;17.30;99.90
32907;DHT22;19259;51.590;5.320;2022-10-15T12:24:54;17.50;99.90
32907;DHT22;19259;51.590;5.320;2022-10-15T12:26:37;17.50;99.90
32907;DHT22;19259;51.590;5.320;2022-10-15T12:29:17;17.50;99.90
32907;DHT22;19259;51.590;5.320;2022-10-15T12:31:57;17.50;99.90
32907;DHT22;19259;51.590;5.320;2022-10-15T12:34:27;17.60;99.90
32907;DHT22;19259;51.590;5.320;2022-10-15T12:37:06;17.50;99.90
32907;DHT22;19259;51.590;5.320;2022-10-15T12:39:36;17.60;99.90
32907;DHT22;19259;51.590;5.320;2022-10-15T12:42:16;17.60;99.90
32907;DHT22;19259;51.590;5.320;2022-10-15T12:44:37;17.80;99.90
32907;DHT22;19259;51.590;5.320;2022-10-15T12:47:05;17.90;99.90
32907;DHT22;19259;51.590;5.320;2022-10-15T12:55:24;17.60;99.90
32907;DHT22;19259;51.590;5.320;2022-10-15T12:58:03;17.70;99.90
32907;DHT22;19259;51.590;5.320;2022-10-15T13:00:36;18.00;99.90
32907;DHT22;19259;51.590;5.320;2022-10-15T13:03:19;18.40;99.90
32907;DHT22;19259;51.590;5.320;2022-10-15T13:05:43;18.40;99.90
32907;DHT22;19259;51.590;5.320;2022-10-15T13:08:20;18.40;99.90
32907;DHT22;19259;51.590;5.320;2022-10-15T13:10:53;18.40;99.90
32907;DHT22;19259;51.590;5.320;2022-10-15T13:13:31;18.50;99.90
32907;DHT22;19259;51.590;5.320;2022-10-15T13:16:05;18.60;99.90
32907;DHT22;19259;51.590;5.320;2022-10-15T13:18:30;18.40;99.90
32907;DHT22;19259;51.590;5.320;2022-10-15T13:20:58;18.20;99.90
32907;DHT22;19259;51.590;5.320;2022-10-15T13:23:28;18.10;99.90
32907;DHT22;19259;51.590;5.320;2022-10-15T13:26:19;17.90;99.90
32907;DHT22;19259;51.590;5.320;2022-10-15T13:28:50;18.10;99.90
32907;DHT22;19259;51.590;5.320;2022-10-15T13:31:36;18.50;99.90
32907;DHT22;19259;51.590;5.320;2022-10-15T13:36:45;18.20;99.90
32907;DHT22;19259;51.590;5.320;2022-10-15T13:39:36;18.00;99.90
32907;DHT22;19259;51.590;5.320;2022-10-15T13:42:16;17.70;99.90
32907;DHT22;19259;51.590;5.320;2022-10-15T13:45:10;17.30;99.90
32907;DHT22;19259;51.590;5.320;2022-10-15T13:47:40;17.10;99.90
32907;DHT22;19259;51.590;5.320;2022-10-15T13:50:25;17.10;99.90
32907;DHT22;19259;51.590;5.320;2022-10-15T13:52:56;17.10;99.90
32907;DHT22;19259;51.590;5.320;2022-10-15T13:55:26;17.10;99.90
32907;DHT22;19259;51.590;5.320;2022-10-15T13:58:13;17.10;99.90
32907;DHT22;19259;51.590;5.320;2022-10-15T14:00:35;17.00;99.90
32907;DHT22;19259;51.590;5.320;2022-10-15T14:03:07;16.90;99.90
32907;DHT22;19259;51.590;5.320;2022-10-15T14:05:35;16.80;99.90
32907;DHT22;19259;51.590;5.320;2022-10-15T14:08:03;16.80;99.90
32907;DHT22;19259;51.590;5.320;2022-10-15T14:10:31;16.80;99.90
32907;DHT22;19259;51.590;5.320;2022-10-15T14:12:59;16.80;99.90
32907;DHT22;19259;51.590;5.320;2022-10-15T14:15:41;16.90;99.90
32907;DHT22;19259;51.590;5.320;2022-10-15T14:18:11;17.00;99.90
32907;DHT22;19259;51.590;5.320;2022-10-15T14:20:45;17.10;99.90
32907;DHT22;19259;51.590;5.320;2022-10-15T14:23:23;17.10;99.90
32907;DHT22;19259;51.590;5.320;2022-10-15T14:25:59;17.00;99.90
32907;DHT22;19259;51.590;5.320;2022-10-15T14:28:30;16.80;99.90
32907;DHT22;19259;51.590;5.320;2022-10-15T14:31:00;16.80;99.90
32907;DHT22;19259;51.590;5.320;2022-10-15T14:38:45;16.60;99.90
32907;DHT22;19259;51.590;5.320;2022-10-15T14:41:30;16.60;99.90
32907;DHT22;19259;51.590;5.320;2022-10-15T14:46:45;16.70;99.90
32907;DHT22;19259;51.590;5.320;2022-10-15T14:49:25;16.80;99.90
32907;DHT22;19259;51.590;5.320;2022-10-15T14:52:15;16.90;99.90
32907;DHT22;19259;51.590;5.320;2022-10-15T14:54:34;16.90;99.90
32907;DHT22;19259;51.590;5.320;2022-10-15T14:57:01;16.80;99.90
32907;DHT22;19259;51.590;5.320;2022-10-15T14:59:33;16.70;99.90
32907;DHT22;19259;51.590;5.320;2022-10-15T15:02:01;16.70;99.90
32907;DHT22;19259;51.590;5.320;2022-10-15T15:04:44;16.60;99.90
32907;DHT22;19259;51.590;5.320;2022-10-15T15:07:18;16.70;99.90
32907;DHT22;19259;51.590;5.320;2022-10-15T15:09:47;16.70;99.90
32907;DHT22;19259;51.590;5.320;2022-10-15T15:12:24;16.50;99.90
32907;DHT22;19259;51.590;5.320;2022-10-15T15:14:48;16.30;99.90
32907;DHT22;19259;51.590;5.320;2022-10-15T15:17:21;16.30;99.90
32907;DHT22;19259;51.590;5.320;2022-10-15T15:19:51;16.30;99.90
32907;DHT22;19259;51.590;5.320;2022-10-15T15:22:28;16.20;99.90
32907;DHT22;19259;51.590;5.320;2022-10-15T15:25:01;16.20;99.90
32907;DHT22;19259;51.590;5.320;2022-10-15T15:27:33;16.20;99.90
32907;DHT22;19259;51.590;5.320;2022-10-15T15:30:12;16.10;99.90
32907;DHT22;19259;51.590;5.320;2022-10-15T15:32:36;16.10;99.90
32907;DHT22;19259;51.590;5.320;2022-10-15T15:35:25;16.10;99.90
32907;DHT22;19259;51.590;5.320;2022-10-15T15:37:53;16.00;99.90
32907;DHT22;19259;51.590;5.320;2022-10-15T15:40:21;16.00;99.90
32907;DHT22;19259;51.590;5.320;2022-10-15T15:42:49;16.00;99.90
32907;DHT22;19259;51.590;5.320;2022-10-15T15:45:20;16.00;99.90
32907;DHT22;19259;51.590;5.320;2022-10-15T15:47:50;15.80;99.90
32907;DHT22;19259;51.590;5.320;2022-10-15T15:50:19;15.80;99.90
32907;DHT22;19259;51.590;5.320;2022-10-15T15:52:47;15.70;99.90
32907;DHT22;19259;51.590;5.320;2022-10-15T15:55:15;15.60;99.90
32907;DHT22;19259;51.590;5.320;2022-10-15T15:57:43;15.50;99.90
32907;DHT22;19259;51.590;5.320;2022-10-15T16:00:14;15.40;99.90
32907;DHT22;19259;51.590;5.320;2022-10-15T16:02:42;15.40;99.90
32907;DHT22;19259;51.590;5.320;2022-10-15T16:05:14;15.20;99.90
32907;DHT22;19259;51.590;5.320;2022-10-15T16:07:43;15.10;99.90
32907;DHT22;19259;51.590;5.320;2022-10-15T16:10:11;15.10;99.90
32907;DHT22;19259;51.590;5.320;2022-10-15T16:12:39;14.90;99.90
32907;DHT22;19259;51.590;5.320;2022-10-15T16:15:09;14.90;99.90
32907;DHT22;19259;51.590;5.320;2022-10-15T16:17:36;14.80;99.90
32907;DHT22;19259;51.590;5.320;2022-10-15T16:20:05;14.70;99.90
32907;DHT22;19259;51.590;5.320;2022-10-15T16:22:33;14.60;99.90
32907;DHT22;19259;51.590;5.320;2022-10-15T16:25:00;14.60;99.90
32907;DHT22;19259;51.590;5.320;2022-10-15T16:27:28;14.50;99.90
32907;DHT22;19259;51.590;5.320;2022-10-15T16:29:55;14.50;99.90
32907;DHT22;19259;51.590;5.320;2022-10-15T16:32:23;14.50;99.90
32907;DHT22;19259;51.590;5.320;2022-10-15T16:34:51;14.40;99.90
32907;DHT22;19259;51.590;5.320;2022-10-15T16:37:18;14.30;99.90
32907;DHT22;19259;51.590;5.320;2022-10-15T16:39:47;14.30;99.90
32907;DHT22;19259;51.590;5.320;2022-10-15T16:42:15;14.30;99.90
32907;DHT22;19259;51.590;5.320;2022-10-15T16:44:42;14.30;99.90
32907;DHT22;19259;51.590;5.320;2022-10-15T16:47:10;14.20;99.90
32907;DHT22;19259;51.590;5.320;2022-10-15T16:49:38;14.20;99.90
32907;DHT22;19259;51.590;5.320;2022-10-15T16:52:06;14.10;99.90
32907;DHT22;19259;51.590;5.320;2022-10-15T16:54:33;14.20;99.90
32907;DHT22;19259;51.590;5.320;2022-10-15T16:57:01;14.10;99.90
32907;DHT22;19259;51.590;5.320;2022-10-15T16:59:28;14.00;99.90
32907;DHT22;19259;51.590;5.320;2022-10-15T17:01:56;14.00;99.90
32907;DHT22;19259;51.590;5.320;2022-10-15T17:04:24;14.00;99.90
32907;DHT22;19259;51.590;5.320;2022-10-15T17:06:51;14.00;99.90
32907;DHT22;19259;51.590;5.320;2022-10-15T17:09:19;14.00;99.90
32907;DHT22;19259;51.590;5.320;2022-10-15T17:11:47;14.00;99.90
32907;DHT22;19259;51.590;5.320;2022-10-15T17:14:15;14.10;99.90
32907;DHT22;19259;51.590;5.320;2022-10-15T17:16:49;14.10;99.90
32907;DHT22;19259;51.590;5.320;2022-10-15T17:19:20;14.10;99.90
32907;DHT22;19259;51.590;5.320;2022-10-15T17:21:49;14.20;99.90
32907;DHT22;19259;51.590;5.320;2022-10-15T17:24:17;14.10;99.90
32907;DHT22;19259;51.590;5.320;2022-10-15T17:26:46;14.10;99.90
32907;DHT22;19259;51.590;5.320;2022-10-15T17:29:17;14.00;99.90
32907;DHT22;19259;51.590;5.320;2022-10-15T17:31:46;14.00;99.90